createdAt,value
2019-04-09T00:02:33.950Z,3.13
2019-04-09T00:05:04.321Z,3.43
2019-04-09T00:07:33.667Z,2.73
2019-04-09T00:10:04.399Z,3.10
2019-04-09T00:12:35.814Z,3.47
2019-04-09T00:15:07.222Z,2.87
2019-04-09T00:17:38.080Z,2.90
2019-04-09T00:20:08.619Z,2.77
2019-04-09T00:22:39.226Z,2.30
2019-04-09T00:25:10.206Z,3.10
2019-04-09T00:27:41.014Z,2.30
2019-04-09T00:30:12.469Z,2.90
2019-04-09T00:32:43.231Z,2.40
2019-04-09T00:35:13.418Z,2.60
2019-04-09T00:37:43.603Z,2.40
2019-04-09T00:40:13.814Z,2.27
2019-04-09T00:42:43.969Z,2.80
2019-04-09T00:45:14.147Z,2.83
2019-04-09T00:47:44.395Z,2.70
2019-04-09T00:50:15.692Z,2.50
2019-04-09T00:52:46.842Z,2.63
2019-04-09T00:55:17.033Z,2.50
2019-04-09T00:57:50.032Z,2.60
2019-04-09T01:00:25.666Z,4.77
2019-04-09T01:02:57.172Z,5.20
2019-04-09T01:05:27.378Z,6.50
2019-04-09T01:07:57.616Z,7.93
2019-04-09T01:10:27.743Z,5.70
2019-04-09T01:12:58.013Z,3.37
2019-04-09T01:15:28.890Z,2.87
2019-04-09T01:17:59.154Z,2.90
2019-04-09T01:20:29.662Z,3.43
2019-04-09T01:23:01.810Z,2.90
2019-04-09T01:25:49.397Z,2.90
2019-04-09T01:28:30.895Z,2.50
2019-04-09T01:31:13.403Z,2.90
2019-04-09T01:34:01.752Z,2.63
2019-04-09T01:36:49.913Z,2.23
2019-04-09T01:39:32.051Z,2.60
2019-04-09T01:42:10.779Z,3.30
2019-04-09T01:44:52.363Z,3.80
2019-04-09T01:47:34.150Z,3.53
2019-04-09T01:50:41.986Z,3.60
2019-04-09T01:53:34.343Z,3.90
2019-04-09T01:56:24.806Z,3.93
2019-04-09T01:59:12.283Z,3.60
2019-04-09T02:02:00.219Z,3.10
2019-04-09T02:04:48.826Z,2.97
2019-04-09T02:07:37.046Z,2.90
2019-04-09T02:10:27.162Z,2.40
2019-04-09T02:13:32.212Z,3.60
2019-04-09T02:16:24.317Z,2.70
2019-04-09T02:19:13.598Z,4.13
2019-04-09T02:22:06.108Z,3.03
2019-04-09T02:24:54.261Z,2.83
2019-04-09T02:27:48.848Z,2.83
2019-04-09T02:30:39.623Z,2.90
2019-04-09T02:33:44.083Z,3.60
2019-04-09T02:36:36.959Z,3.17
2019-04-09T02:39:29.245Z,2.50
2019-04-09T02:48:42.238Z,2.90
2019-04-09T02:51:28.513Z,3.57
2019-04-09T02:54:16.477Z,5.53
2019-04-09T02:57:17.748Z,3.90
2019-04-09T03:00:07.439Z,3.47
2019-04-09T03:02:59.790Z,3.53
2019-04-09T03:05:45.020Z,3.10
2019-04-09T03:08:37.545Z,3.20
2019-04-09T03:11:36.622Z,2.90
2019-04-09T03:14:24.551Z,3.20
2019-04-09T03:17:31.761Z,3.20
2019-04-09T03:20:20.495Z,3.20
2019-04-09T03:23:04.718Z,3.53
2019-04-09T03:26:03.605Z,3.10
2019-04-09T03:28:51.570Z,3.20
2019-04-09T03:31:55.972Z,2.73
2019-04-09T03:34:45.640Z,3.30
2019-04-09T03:37:28.630Z,59.77
2019-04-09T03:40:09.354Z,42.53
2019-04-09T03:42:57.408Z,19.87
2019-04-09T03:45:51.395Z,6.00
2019-04-09T03:48:27.886Z,3.03
2019-04-09T03:51:26.927Z,3.43
2019-04-09T03:54:02.753Z,3.00
2019-04-09T03:56:42.872Z,3.57
2019-04-09T03:59:36.189Z,3.25
2019-04-09T04:02:18.375Z,3.40
2019-04-09T04:05:20.951Z,3.37
2019-04-09T04:08:03.231Z,3.00
2019-04-09T04:10:58.638Z,3.50
2019-04-09T04:13:47.198Z,3.00
2019-04-09T04:16:46.430Z,3.23
2019-04-09T04:19:38.671Z,3.67
2019-04-09T04:22:29.203Z,3.90
2019-04-09T04:25:17.832Z,3.87
2019-04-09T04:28:10.597Z,4.30
2019-04-09T04:31:03.279Z,3.85
2019-04-09T04:33:41.249Z,3.50
2019-04-09T04:36:39.496Z,4.33
2019-04-09T04:39:37.984Z,4.20
2019-04-09T04:42:31.992Z,4.03
2019-04-09T04:45:20.339Z,3.80
2019-04-09T04:48:20.222Z,4.20
2019-04-09T04:51:13.338Z,3.73
2019-04-09T04:53:51.104Z,3.93
2019-04-09T04:56:43.140Z,3.40
2019-04-09T04:59:42.271Z,4.27
2019-04-09T05:02:22.716Z,4.27
2019-04-09T05:05:00.197Z,4.03
2019-04-09T05:07:43.398Z,4.23
2019-04-09T05:10:29.968Z,3.70
2019-04-09T05:13:22.741Z,10.20
2019-04-09T05:16:06.181Z,4.87
2019-04-09T05:18:55.698Z,4.27
2019-04-09T05:21:43.208Z,4.20
2019-04-09T05:24:22.623Z,4.00
2019-04-09T05:27:04.512Z,4.03
2019-04-09T05:29:56.409Z,4.90
2019-04-09T05:32:59.277Z,4.40
2019-04-09T05:36:04.452Z,4.67
2019-04-09T05:38:52.264Z,4.70
2019-04-09T05:41:34.626Z,4.30
2019-04-09T05:54:20.288Z,4.70
2019-04-09T05:57:02.488Z,4.73
2019-04-09T06:00:02.107Z,4.67
2019-04-09T06:02:49.952Z,4.07
2019-04-09T06:05:34.841Z,4.57
2019-04-09T06:08:27.593Z,4.90
2019-04-09T06:11:01.243Z,4.30
2019-04-09T06:13:31.706Z,4.80
2019-04-09T06:16:03.670Z,4.80
2019-04-09T06:18:34.294Z,4.10
2019-04-09T06:21:05.879Z,4.13
2019-04-09T06:23:37.044Z,4.60
2019-04-09T06:26:09.200Z,5.05
2019-04-09T06:28:39.397Z,5.10
2019-04-09T06:31:10.385Z,5.45
2019-04-09T06:33:59.752Z,4.97
2019-04-09T06:36:44.100Z,5.20
2019-04-09T06:39:30.806Z,4.90
2019-04-09T06:42:26.224Z,6.13
2019-04-09T06:45:25.871Z,6.17
2019-04-09T06:48:31.252Z,6.37
2019-04-09T06:51:28.119Z,6.00
2019-04-09T06:54:15.146Z,7.00
2019-04-09T06:56:55.064Z,7.80
2019-04-09T06:59:47.450Z,7.93
2019-04-09T07:02:35.863Z,9.60
2019-04-09T07:05:20.420Z,8.60
2019-04-09T07:08:10.421Z,8.50
2019-04-09T07:11:14.297Z,19.83
2019-04-09T07:14:09.110Z,85.33
2019-04-09T07:17:02.417Z,60.90
2019-04-09T07:19:43.174Z,59.13
2019-04-09T07:22:31.100Z,17.50
2019-04-09T07:25:18.166Z,10.70
2019-04-09T07:28:15.689Z,12.40
2019-04-09T07:31:17.079Z,12.33
2019-04-09T07:33:58.506Z,13.07
2019-04-09T07:36:50.822Z,13.70
2019-04-09T07:39:52.016Z,12.00
2019-04-09T07:42:53.124Z,13.03
2019-04-09T07:45:44.473Z,11.77
2019-04-09T07:48:30.988Z,12.23
2019-04-09T07:51:21.160Z,12.57
2019-04-09T07:54:18.122Z,15.40
2019-04-09T07:57:05.881Z,12.77
2019-04-09T08:00:09.054Z,12.90
2019-04-09T08:02:53.260Z,12.23
2019-04-09T08:05:43.957Z,13.50
2019-04-09T08:08:37.756Z,13.10
2019-04-09T08:11:30.117Z,13.23
2019-04-09T08:14:10.030Z,13.10
2019-04-09T08:17:16.393Z,14.17
2019-04-09T08:20:05.903Z,14.87
2019-04-09T08:22:55.299Z,15.03
2019-04-09T08:25:46.342Z,13.70
2019-04-09T08:28:37.611Z,15.33
2019-04-09T08:31:30.282Z,14.90
2019-04-09T08:34:38.675Z,14.07
2019-04-09T08:37:37.340Z,15.50
2019-04-09T08:40:27.462Z,14.67
2019-04-09T08:43:33.028Z,14.78
2019-04-09T08:46:26.024Z,13.85
2019-04-09T08:49:39.527Z,18.23
2019-04-09T08:52:40.892Z,16.67
2019-04-09T08:55:15.831Z,16.23
2019-04-09T08:57:49.793Z,15.57
2019-04-09T09:01:19.177Z,16.33
2019-04-09T09:03:29.529Z,15.77
2019-04-09T09:06:33.887Z,16.57
2019-04-09T09:09:17.875Z,17.33
2019-04-09T09:12:06.827Z,17.10
2019-04-09T09:14:57.424Z,19.03
2019-04-09T09:17:57.201Z,17.75
2019-04-09T09:20:47.728Z,18.63
2019-04-09T09:23:44.470Z,18.77
2019-04-09T09:26:44.631Z,16.77
2019-04-09T09:29:27.094Z,17.43
2019-04-09T09:32:04.490Z,16.53
2019-04-09T09:35:12.035Z,16.90
2019-04-09T09:37:52.700Z,18.10
2019-04-09T09:40:36.683Z,19.40
2019-04-09T09:43:20.457Z,20.83
2019-04-09T09:46:30.724Z,22.33
2019-04-09T09:49:29.318Z,20.83
2019-04-09T09:52:18.800Z,21.40
2019-04-09T09:55:20.181Z,20.80
2019-04-09T09:58:00.759Z,21.30
2019-04-09T10:00:40.300Z,22.07
2019-04-09T10:09:23.009Z,21.00
2019-04-09T10:12:10.622Z,19.80
2019-04-09T10:15:20.827Z,21.07
2019-04-09T10:18:01.233Z,21.83
2019-04-09T10:20:52.085Z,22.87
2019-04-09T10:23:51.775Z,23.80
2019-04-09T10:26:40.693Z,21.70
2019-04-09T10:29:36.465Z,22.23
2019-04-09T10:32:30.836Z,20.93
2019-04-09T10:35:29.021Z,21.23
2019-04-09T10:38:21.655Z,20.77
2019-04-09T10:41:22.151Z,37.73
2019-04-09T10:44:05.769Z,22.60
2019-04-09T10:46:54.212Z,22.27
2019-04-09T10:49:43.818Z,22.25
2019-04-09T10:52:54.910Z,21.10
2019-04-09T10:55:55.039Z,21.17
2019-04-09T10:58:43.916Z,21.67
2019-04-09T11:01:47.813Z,21.97
2019-04-09T11:04:33.591Z,20.68
2019-04-09T11:07:13.092Z,21.90
2019-04-09T11:09:57.958Z,21.97
2019-04-09T11:12:50.599Z,20.67
2019-04-09T11:15:59.706Z,22.00
2019-04-09T11:18:56.765Z,20.07
2019-04-09T11:21:43.542Z,22.60
2019-04-09T11:24:50.379Z,22.37
2019-04-09T11:27:42.361Z,23.27
2019-04-09T11:30:36.178Z,22.33
2019-04-09T11:33:33.025Z,23.43
2019-04-09T11:36:17.017Z,23.37
2019-04-09T11:39:06.581Z,20.87
2019-04-09T11:41:52.867Z,21.63
2019-04-09T11:44:45.145Z,26.00
2019-04-09T11:47:33.239Z,25.90
2019-04-09T11:50:31.987Z,24.53
2019-04-09T11:53:24.398Z,24.50
2019-04-09T11:56:04.065Z,25.67
2019-04-09T11:58:53.525Z,24.55
2019-04-09T12:01:44.901Z,24.60
2019-04-09T12:04:28.399Z,24.00
2019-04-09T12:07:16.549Z,24.47
2019-04-09T12:10:04.816Z,23.20
2019-04-09T12:12:47.781Z,24.30
2019-04-09T12:15:30.880Z,22.97
2019-04-09T12:18:29.323Z,24.10
2019-04-09T12:21:33.587Z,26.73
2019-04-09T12:24:29.882Z,25.40
2019-04-09T12:27:14.522Z,25.53
2019-04-09T12:30:01.703Z,25.43
2019-04-09T12:33:02.868Z,26.00
2019-04-09T12:35:56.657Z,25.17
2019-04-09T12:38:51.941Z,27.07
2019-04-09T12:41:31.846Z,26.40
2019-04-09T12:44:43.092Z,27.30
2019-04-09T12:47:31.136Z,26.57
2019-04-09T12:50:20.219Z,27.10
2019-04-09T12:53:12.238Z,27.40
2019-04-09T12:56:13.154Z,30.13
2019-04-09T12:59:07.761Z,24.80
2019-04-09T13:02:06.165Z,24.40
2019-04-09T13:05:10.517Z,25.43
2019-04-09T13:08:15.910Z,23.40
2019-04-09T13:11:06.517Z,23.10
2019-04-09T13:14:01.996Z,25.60
2019-04-09T13:17:03.617Z,19.90
2019-04-09T13:19:54.139Z,22.63
2019-04-09T13:22:43.744Z,22.73
2019-04-09T13:25:25.977Z,22.43
2019-04-09T13:28:24.638Z,23.20
2019-04-09T13:31:12.985Z,22.07
2019-04-09T13:33:51.098Z,21.27
2019-04-09T13:36:42.555Z,22.17
2019-04-09T13:39:42.654Z,21.70
2019-04-09T13:42:22.646Z,19.40
2019-04-09T13:45:12.181Z,18.53
2019-04-09T13:48:14.320Z,17.93
2019-04-09T13:51:03.524Z,19.80
2019-04-09T13:53:35.581Z,19.67
2019-04-09T13:56:06.057Z,19.50
2019-04-09T13:58:37.265Z,18.57
2019-04-09T14:01:07.877Z,18.77
2019-04-09T14:03:42.900Z,19.73
2019-04-09T14:06:13.378Z,18.23
2019-04-09T14:08:43.658Z,19.57
2019-04-09T14:11:14.416Z,19.30
2019-04-09T14:13:47.825Z,18.65
2019-04-09T14:16:21.225Z,19.07
2019-04-09T14:19:09.730Z,18.57
2019-04-09T14:21:44.574Z,19.03
2019-04-09T14:24:16.492Z,18.77
2019-04-09T14:26:47.772Z,18.60
2019-04-09T14:29:18.758Z,24.63
2019-04-09T14:31:49.003Z,18.07
2019-04-09T14:34:19.319Z,18.03
2019-04-09T14:36:50.950Z,18.13
2019-04-09T14:39:21.600Z,17.53
2019-04-09T14:41:52.761Z,18.27
2019-04-09T14:44:23.691Z,18.00
2019-04-09T14:46:54.080Z,15.33
2019-04-09T14:49:27.255Z,15.57
2019-04-09T14:51:58.174Z,17.80
2019-04-09T14:54:29.725Z,16.37
2019-04-09T14:57:00.685Z,17.20
2019-04-09T14:59:31.211Z,16.30
2019-04-09T15:02:01.735Z,17.37
2019-04-09T15:04:33.013Z,16.23
2019-04-09T15:07:04.945Z,15.40
2019-04-09T15:09:35.738Z,15.97
2019-04-09T15:12:06.413Z,16.20
2019-04-09T15:14:36.753Z,16.43
2019-04-09T15:17:07.608Z,16.13
2019-04-09T15:19:38.026Z,15.83
2019-04-09T15:22:18.252Z,17.13
2019-04-09T15:24:48.994Z,17.10
2019-04-09T15:27:19.670Z,18.37
2019-04-09T15:29:50.246Z,22.37
2019-04-09T15:32:22.744Z,19.30
2019-04-09T15:34:53.658Z,18.43
2019-04-09T15:37:27.519Z,19.70
2019-04-09T15:39:59.404Z,18.27
2019-04-09T15:42:30.122Z,18.87
2019-04-09T15:45:00.508Z,16.23
2019-04-09T15:47:32.236Z,16.70
2019-04-09T15:50:04.990Z,15.50
2019-04-09T15:52:35.265Z,16.67
2019-04-09T15:55:05.928Z,17.33
2019-04-09T15:57:37.433Z,16.00
2019-04-09T16:00:08.876Z,15.40
2019-04-09T16:02:43.032Z,15.60
2019-04-09T16:05:13.728Z,14.90
2019-04-09T16:07:44.722Z,15.40
2019-04-09T16:10:15.177Z,15.40
2019-04-09T16:12:45.650Z,17.50
2019-04-09T16:15:17.548Z,15.00
2019-04-09T16:17:48.081Z,14.90
2019-04-09T16:20:18.455Z,18.03
2019-04-09T16:22:48.964Z,18.30
2019-04-09T16:25:20.505Z,18.00
2019-04-09T16:27:51.318Z,15.80
2019-04-09T16:30:21.971Z,17.10
2019-04-09T16:33:04.407Z,19.47
2019-04-09T16:35:25.852Z,18.53
2019-04-09T16:37:56.272Z,29.47
2019-04-09T16:40:26.637Z,22.32
2019-04-09T16:43:04.144Z,17.73
2019-04-09T16:45:35.180Z,17.47
2019-04-09T16:48:06.407Z,17.87
2019-04-09T16:50:37.465Z,16.47
2019-04-09T16:53:09.051Z,16.53
2019-04-09T16:55:41.007Z,19.17
2019-04-09T16:58:11.483Z,20.30
2019-04-09T17:00:42.990Z,19.27
2019-04-09T17:03:14.899Z,18.50
2019-04-09T17:05:46.519Z,17.80
2019-04-09T17:08:17.684Z,17.30
2019-04-09T17:10:48.452Z,18.50
2019-04-09T17:13:18.987Z,16.87
2019-04-09T17:15:49.715Z,16.50
2019-04-09T17:18:22.104Z,18.53
2019-04-09T17:20:56.320Z,17.07
2019-04-09T17:23:27.463Z,16.37
2019-04-09T17:25:59.979Z,18.10
2019-04-09T17:28:31.934Z,18.77
2019-04-09T17:31:04.981Z,21.33
2019-04-09T17:33:39.236Z,22.53
2019-04-09T17:36:10.906Z,20.80
2019-04-09T17:38:41.499Z,19.63
2019-04-09T17:41:12.418Z,19.47
2019-04-09T17:43:43.008Z,19.53
2019-04-09T17:46:13.487Z,18.80
2019-04-09T17:48:44.420Z,17.90
2019-04-09T17:51:15.150Z,18.40
2019-04-09T17:53:46.072Z,18.07
2019-04-09T17:56:16.464Z,18.87
2019-04-09T17:58:49.947Z,19.37
2019-04-09T18:01:20.895Z,18.80
2019-04-09T18:03:51.570Z,18.27
2019-04-09T18:06:23.597Z,18.37
2019-04-09T18:08:55.186Z,20.20
2019-04-09T18:11:25.453Z,18.47
2019-04-09T18:13:56.226Z,19.67
2019-04-09T18:16:26.791Z,19.97
2019-04-09T18:18:57.318Z,19.90
2019-04-09T18:21:27.800Z,17.77
2019-04-09T18:23:58.456Z,19.90
2019-04-09T18:26:32.636Z,19.95
2019-04-09T18:29:03.371Z,19.20
2019-04-09T18:31:35.097Z,19.50
2019-04-09T18:34:07.054Z,19.90
2019-04-09T18:36:38.749Z,20.57
2019-04-09T18:39:12.104Z,19.77
2019-04-09T18:41:42.958Z,19.30
2019-04-09T18:44:14.174Z,19.30
2019-04-09T18:46:44.465Z,19.17
2019-04-09T18:49:15.035Z,21.23
2019-04-09T18:51:46.890Z,19.50
2019-04-09T18:54:17.794Z,19.73
2019-04-09T18:56:49.934Z,20.88
2019-04-09T18:59:21.167Z,19.10
2019-04-09T19:01:51.579Z,19.00
2019-04-09T19:04:22.488Z,19.50
2019-04-09T19:06:53.742Z,19.27
2019-04-09T19:09:24.254Z,20.33
2019-04-09T19:11:54.601Z,25.13
2019-04-09T19:14:26.161Z,20.60
2019-04-09T19:16:57.572Z,20.07
2019-04-09T19:19:27.981Z,19.35
2019-04-09T19:21:59.010Z,19.73
2019-04-09T19:24:31.314Z,18.90
2019-04-09T19:27:02.003Z,19.90
2019-04-09T19:29:32.935Z,18.57
2019-04-09T19:32:04.064Z,20.83
2019-04-09T19:34:34.935Z,21.07
2019-04-09T19:37:05.657Z,22.50
2019-04-09T19:39:39.230Z,19.75
2019-04-09T19:42:15.595Z,19.27
2019-04-09T19:44:42.588Z,19.37
2019-04-09T19:47:13.423Z,18.83
2019-04-09T19:49:44.002Z,18.60
2019-04-09T19:52:15.376Z,18.63
2019-04-09T19:54:46.182Z,19.77
2019-04-09T19:57:16.638Z,18.77
2019-04-09T19:59:47.011Z,32.30
2019-04-09T20:02:18.625Z,24.90
2019-04-09T20:04:49.578Z,20.90
2019-04-09T20:07:20.517Z,21.20
2019-04-09T20:09:53.878Z,23.27
2019-04-09T20:12:25.014Z,22.60
2019-04-09T20:14:55.725Z,22.10
2019-04-09T20:17:29.093Z,21.82
2019-04-09T20:19:59.778Z,23.43
2019-04-09T20:22:30.024Z,23.23
2019-04-09T20:25:00.892Z,23.57
2019-04-09T20:27:31.455Z,23.90
2019-04-09T20:30:02.143Z,24.17
2019-04-09T20:32:33.279Z,24.77
2019-04-09T20:35:08.076Z,23.87
2019-04-09T20:37:35.861Z,24.83
2019-04-09T20:40:07.828Z,23.93
2019-04-09T20:42:39.212Z,22.50
2019-04-09T20:45:10.779Z,23.97
2019-04-09T20:47:41.375Z,24.60
2019-04-09T20:50:12.979Z,24.70
2019-04-09T20:52:43.979Z,26.67
2019-04-09T20:55:16.069Z,26.97
2019-04-09T20:57:47.163Z,25.20
2019-04-09T21:00:42.992Z,25.90
2019-04-09T21:03:31.412Z,27.20
2019-04-09T21:06:06.825Z,25.62
2019-04-09T21:08:37.818Z,26.93
2019-04-09T21:11:08.318Z,26.68
2019-04-09T21:13:39.383Z,27.70
2019-04-09T21:16:10.161Z,26.90
2019-04-09T21:18:41.091Z,27.13
2019-04-09T21:21:11.628Z,26.67
2019-04-09T21:23:42.486Z,27.63
2019-04-09T21:26:13.742Z,25.87
2019-04-09T21:28:44.188Z,27.90
2019-04-09T21:31:15.375Z,27.20
2019-04-09T21:33:47.004Z,26.43
2019-04-09T21:36:18.864Z,26.77
2019-04-09T21:38:50.055Z,27.37
2019-04-09T21:41:22.066Z,27.43
2019-04-09T21:43:52.651Z,27.07
2019-04-09T21:46:23.608Z,28.67
2019-04-09T21:48:53.843Z,27.37
2019-04-09T21:51:24.119Z,26.37
2019-04-09T21:53:54.453Z,27.57
2019-04-09T21:56:25.936Z,27.27
2019-04-09T21:58:57.437Z,26.20
2019-04-09T22:01:28.034Z,28.27
2019-04-09T22:03:59.059Z,27.00
2019-04-09T22:06:31.618Z,26.55
2019-04-09T22:09:02.643Z,26.60
2019-04-09T22:11:34.683Z,26.07
2019-04-09T22:14:05.833Z,26.00
2019-04-09T22:16:36.567Z,26.23
2019-04-09T22:19:06.788Z,28.07
2019-04-09T22:21:37.214Z,28.00
2019-04-09T22:24:07.654Z,26.73
2019-04-09T22:26:38.280Z,28.40
2019-04-09T22:29:09.219Z,28.53
2019-04-09T22:31:40.113Z,28.70
2019-04-09T22:34:11.377Z,30.97
2019-04-09T22:36:43.422Z,28.57
2019-04-09T22:39:14.116Z,29.40
2019-04-09T22:41:45.141Z,28.60
2019-04-09T22:44:16.400Z,29.67
2019-04-09T22:46:46.777Z,28.17
2019-04-09T22:49:17.171Z,28.10
2019-04-09T22:51:47.557Z,29.13
2019-04-09T22:54:19.008Z,28.20
2019-04-09T22:56:49.354Z,27.73
2019-04-09T22:59:19.653Z,25.47
2019-04-09T23:02:13.941Z,29.83
2019-04-09T23:05:04.641Z,27.23
2019-04-09T23:07:50.404Z,26.20
2019-04-09T23:10:39.880Z,26.77
2019-04-09T23:13:10.162Z,28.90
2019-04-09T23:15:45.696Z,27.17
2019-04-09T23:18:16.830Z,25.73
2019-04-09T23:20:47.395Z,26.50
2019-04-09T23:23:18.583Z,27.60
2019-04-09T23:25:48.901Z,32.17
2019-04-09T23:28:19.191Z,31.50
2019-04-09T23:30:50.384Z,32.10
2019-04-09T23:33:21.200Z,30.93
2019-04-09T23:35:53.133Z,31.10
2019-04-09T23:38:24.375Z,32.70
2019-04-09T23:40:55.538Z,31.20
2019-04-09T23:43:25.928Z,32.00
2019-04-09T23:45:57.090Z,33.70
2019-04-09T23:48:28.259Z,33.70
2019-04-09T23:50:58.654Z,34.80
2019-04-09T23:53:29.827Z,32.63
2019-04-09T23:56:00.992Z,31.77
2019-04-09T23:58:31.745Z,33.65
